createdAt,value
2019-04-09T00:00:26.223Z,14.23
2019-04-09T00:01:26.600Z,14.15
2019-04-09T00:02:26.158Z,14.18
2019-04-09T00:03:25.719Z,14.32
2019-04-09T00:04:25.734Z,14.3
2019-04-09T00:05:26.020Z,14.32
2019-04-09T00:06:25.778Z,14.3
2019-04-09T00:07:26.499Z,14.17
2019-04-09T00:08:25.565Z,14.28
2019-04-09T00:09:26.973Z,14.29
2019-04-09T00:10:26.978Z,14.26
2019-04-09T00:11:26.999Z,14.22
2019-04-09T00:12:27.326Z,14.17
2019-04-09T00:13:25.962Z,14.17
2019-04-09T00:14:26.442Z,14.22
2019-04-09T00:15:25.975Z,14.18
2019-04-09T00:16:27.131Z,14.22
2019-04-09T00:17:26.234Z,14.2
2019-04-09T00:18:25.770Z,14.17
2019-04-09T00:19:26.052Z,14.23
2019-04-09T00:20:27.305Z,14.17
2019-04-09T00:21:27.356Z,14.2
2019-04-09T00:22:26.545Z,14.17
2019-04-09T00:23:27.089Z,14.2
2019-04-09T00:24:28.320Z,14.17
2019-04-09T00:25:26.599Z,14.23
2019-04-09T00:26:26.338Z,14.11
2019-04-09T00:27:26.944Z,14.12
2019-04-09T00:28:27.157Z,14.14
2019-04-09T00:29:27.309Z,14.17
2019-04-09T00:30:27.113Z,14.15
2019-04-09T00:31:27.102Z,14.14
2019-04-09T00:32:26.591Z,14.17
2019-04-09T00:33:26.626Z,14.14
2019-04-09T00:34:27.284Z,14.14
2019-04-09T00:35:26.664Z,14.14
2019-04-09T00:36:26.405Z,14.07
2019-04-09T00:37:27.351Z,14.11
2019-04-09T00:38:27.538Z,14.04
2019-04-09T00:39:26.679Z,14.04
2019-04-09T00:40:26.774Z,14.11
2019-04-09T00:41:29.512Z,14.07
2019-04-09T00:42:27.583Z,14
2019-04-09T00:43:27.372Z,14.1
2019-04-09T00:44:26.816Z,13.99
2019-04-09T00:45:26.830Z,13.97
2019-04-09T00:46:27.375Z,13.97
2019-04-09T00:47:26.743Z,13.97
2019-04-09T00:48:27.575Z,13.99
2019-04-09T00:49:26.415Z,14.03
2019-04-09T00:50:29.576Z,13.99
2019-04-09T00:51:27.030Z,14
2019-04-09T00:52:27.198Z,14
2019-04-09T00:53:28.091Z,14
2019-04-09T00:54:27.903Z,13.97
2019-04-09T00:55:27.494Z,14
2019-04-09T00:56:27.841Z,13.96
2019-04-09T00:57:27.416Z,13.97
2019-04-09T00:58:27.862Z,13.97
2019-04-09T00:59:26.662Z,13.97
2019-04-09T01:00:28.316Z,13.97
2019-04-09T01:01:26.929Z,13.97
2019-04-09T01:02:27.169Z,13.97
2019-04-09T01:03:28.423Z,13.85
2019-04-09T01:04:28.211Z,13.93
2019-04-09T01:05:27.430Z,13.86
2019-04-09T01:06:27.650Z,13.85
2019-04-09T01:07:28.308Z,13.92
2019-04-09T01:08:27.653Z,13.85
2019-04-09T01:09:27.454Z,13.87
2019-04-09T01:10:26.855Z,13.9
2019-04-09T01:11:27.952Z,13.87
2019-04-09T01:12:28.570Z,13.9
2019-04-09T01:13:27.175Z,13.79
2019-04-09T01:14:27.512Z,13.85
2019-04-09T01:15:27.223Z,13.77
2019-04-09T01:16:28.428Z,13.75
2019-04-09T01:17:27.575Z,13.71
2019-04-09T01:18:27.682Z,13.74
2019-04-09T01:19:29.396Z,13.83
2019-04-09T01:20:27.970Z,13.77
2019-04-09T01:21:28.102Z,13.71
2019-04-09T01:22:27.107Z,13.72
2019-04-09T01:23:27.392Z,13.86
2019-04-09T01:24:41.745Z,13.79
2019-04-09T01:25:28.450Z,13.78
2019-04-09T01:26:27.365Z,13.78
2019-04-09T01:27:29.004Z,13.77
2019-04-09T01:28:27.822Z,13.71
2019-04-09T01:29:27.376Z,13.85
2019-04-09T01:30:28.199Z,13.77
2019-04-09T01:31:27.853Z,13.75
2019-04-09T01:32:27.573Z,13.79
2019-04-09T01:33:27.327Z,13.72
2019-04-09T01:34:28.378Z,13.74
2019-04-09T01:35:28.898Z,13.71
2019-04-09T01:36:27.764Z,13.71
2019-04-09T01:37:28.765Z,13.7
2019-04-09T01:38:28.639Z,13.63
2019-04-09T01:39:28.231Z,13.67
2019-04-09T01:40:28.643Z,13.57
2019-04-09T01:41:29.020Z,13.6
2019-04-09T01:42:27.779Z,13.62
2019-04-09T01:43:27.533Z,13.54
2019-04-09T01:44:28.086Z,13.62
2019-04-09T01:45:28.435Z,13.62
2019-04-09T01:46:27.602Z,13.56
2019-04-09T01:47:28.807Z,13.62
2019-04-09T01:48:28.177Z,13.68
2019-04-09T01:49:28.238Z,13.49
2019-04-09T01:50:28.993Z,13.56
2019-04-09T01:51:29.043Z,13.5
2019-04-09T01:52:29.104Z,13.59
2019-04-09T01:53:28.301Z,13.49
2019-04-09T01:54:28.013Z,13.44
2019-04-09T01:55:27.787Z,13.39
2019-04-09T01:56:29.089Z,13.41
2019-04-09T01:57:37.178Z,13.5
2019-04-09T01:58:29.251Z,13.49
2019-04-09T01:59:29.076Z,13.42
2019-04-09T02:00:28.245Z,13.49
2019-04-09T02:01:28.499Z,13.39
2019-04-09T02:02:29.594Z,13.46
2019-04-09T02:03:29.333Z,13.37
2019-04-09T02:04:28.233Z,13.37
2019-04-09T02:05:28.250Z,13.38
2019-04-09T02:06:29.576Z,13.39
2019-04-09T02:07:28.629Z,13.38
2019-04-09T02:08:28.443Z,13.38
2019-04-09T02:09:28.335Z,13.33
2019-04-09T02:10:29.134Z,13.39
2019-04-09T02:11:29.667Z,13.25
2019-04-09T02:12:29.044Z,13.23
2019-04-09T02:13:29.788Z,13.3
2019-04-09T02:14:28.438Z,13.27
2019-04-09T02:15:29.550Z,13.22
2019-04-09T02:16:28.959Z,13.25
2019-04-09T02:17:29.131Z,13.31
2019-04-09T02:18:30.049Z,13.28
2019-04-09T02:19:28.299Z,13.33
2019-04-09T02:20:28.559Z,13.31
2019-04-09T02:21:29.290Z,13.15
2019-04-09T02:22:29.516Z,13.18
2019-04-09T02:23:28.356Z,13.27
2019-04-09T02:24:28.856Z,13.23
2019-04-09T02:25:29.417Z,13.19
2019-04-09T02:26:28.735Z,13.18
2019-04-09T02:27:48.061Z,13.2
2019-04-09T02:28:29.459Z,13.22
2019-04-09T02:29:29.332Z,13.22
2019-04-09T02:30:32.959Z,13.22
2019-04-09T02:31:28.952Z,13.23
2019-04-09T02:32:29.098Z,13.19
2019-04-09T02:33:31.774Z,13.28
2019-04-09T02:34:31.963Z,13.2
2019-04-09T02:35:32.570Z,13.25
2019-04-09T02:36:30.235Z,13.25
2019-04-09T02:37:34.484Z,13.22
2019-04-09T02:38:28.676Z,13.27
2019-04-09T02:39:30.669Z,13.16
2019-04-09T02:40:30.247Z,13.15
2019-04-09T02:41:29.739Z,13.25
2019-04-09T02:42:29.157Z,13.2
2019-04-09T02:43:29.167Z,13.19
2019-04-09T02:44:29.779Z,13.15
2019-04-09T02:45:29.376Z,13.16
2019-04-09T02:46:29.436Z,13.12
2019-04-09T02:47:30.135Z,13.16
2019-04-09T02:48:30.375Z,13.15
2019-04-09T02:49:29.148Z,13.16
2019-04-09T02:50:29.180Z,13.08
2019-04-09T02:51:29.811Z,13.13
2019-04-09T02:52:29.995Z,13.09
2019-04-09T02:53:29.887Z,13.09
2019-04-09T02:54:29.800Z,13.03
2019-04-09T02:55:29.570Z,13.01
2019-04-09T02:56:30.274Z,13.08
2019-04-09T02:57:30.281Z,13.04
2019-04-09T02:58:29.420Z,13.01
2019-04-09T02:59:30.393Z,13.01
2019-04-09T03:00:30.421Z,13.04
2019-04-09T03:01:29.387Z,13.01
2019-04-09T03:02:30.308Z,13.01
2019-04-09T03:03:31.152Z,13.04
2019-04-09T03:04:29.471Z,12.97
2019-04-09T03:05:29.736Z,13.03
2019-04-09T03:06:30.396Z,13
2019-04-09T03:07:30.073Z,12.98
2019-04-09T03:08:29.532Z,13
2019-04-09T03:09:29.288Z,13.01
2019-04-09T03:10:29.924Z,13
2019-04-09T03:11:29.631Z,12.97
2019-04-09T03:12:29.848Z,12.87
2019-04-09T03:13:30.830Z,12.85
2019-04-09T03:14:30.657Z,12.93
2019-04-09T03:15:30.133Z,12.9
2019-04-09T03:16:29.579Z,12.94
2019-04-09T03:17:31.218Z,12.91
2019-04-09T03:18:29.732Z,12.93
2019-04-09T03:19:29.488Z,12.94
2019-04-09T03:20:30.719Z,12.86
2019-04-09T03:21:30.921Z,12.9
2019-04-09T03:22:30.081Z,12.93
2019-04-09T03:23:29.846Z,12.87
2019-04-09T03:24:32.970Z,12.9
2019-04-09T03:25:30.533Z,12.9
2019-04-09T03:26:29.897Z,12.9
2019-04-09T03:27:30.828Z,12.91
2019-04-09T03:28:31.039Z,12.93
2019-04-09T03:29:30.174Z,12.87
2019-04-09T03:30:31.199Z,12.82
2019-04-09T03:31:34.979Z,12.9
2019-04-09T03:32:33.586Z,12.79
2019-04-09T03:33:34.391Z,12.79
2019-04-09T03:34:32.861Z,12.79
2019-04-09T03:35:29.812Z,12.82
2019-04-09T03:36:29.835Z,12.78
2019-04-09T03:37:31.191Z,12.76
2019-04-09T03:38:31.031Z,12.79
2019-04-09T03:39:30.502Z,12.68
2019-04-09T03:40:30.183Z,12.79
2019-04-09T03:41:30.567Z,12.7
2019-04-09T03:42:30.630Z,12.67
2019-04-09T03:43:31.606Z,12.75
2019-04-09T03:44:31.447Z,12.73
2019-04-09T03:45:31.396Z,12.68
2019-04-09T03:46:30.145Z,12.67
2019-04-09T03:47:30.499Z,12.7
2019-04-09T03:48:30.141Z,12.68
2019-04-09T03:49:30.448Z,12.72
2019-04-09T03:50:30.384Z,12.72
2019-04-09T03:51:31.381Z,12.67
2019-04-09T03:52:31.924Z,12.61
2019-04-09T03:53:30.730Z,12.55
2019-04-09T03:54:31.277Z,12.7
2019-04-09T03:55:30.991Z,12.61
2019-04-09T03:56:30.612Z,12.62
2019-04-09T03:57:30.673Z,12.55
2019-04-09T03:58:31.098Z,12.6
2019-04-09T03:59:31.432Z,12.58
2019-04-09T04:00:32.701Z,12.6
2019-04-09T04:01:30.717Z,12.54
2019-04-09T04:02:32.682Z,12.53
2019-04-09T04:03:30.643Z,12.54
2019-04-09T04:04:30.395Z,12.55
2019-04-09T04:05:30.675Z,12.47
2019-04-09T04:06:30.695Z,12.42
2019-04-09T04:07:31.361Z,12.46
2019-04-09T04:08:31.480Z,12.49
2019-04-09T04:09:31.737Z,12.47
2019-04-09T04:10:31.967Z,12.49
2019-04-09T04:11:31.803Z,12.53
2019-04-09T04:12:31.336Z,12.45
2019-04-09T04:13:31.632Z,12.46
2019-04-09T04:14:32.408Z,12.43
2019-04-09T04:15:30.878Z,12.43
2019-04-09T04:16:31.223Z,12.46
2019-04-09T04:17:30.666Z,12.4
2019-04-09T04:18:30.675Z,12.4
2019-04-09T04:19:31.161Z,12.43
2019-04-09T04:20:31.356Z,12.35
2019-04-09T04:21:30.734Z,12.36
2019-04-09T04:22:31.708Z,12.39
2019-04-09T04:23:31.735Z,12.45
2019-04-09T04:24:30.791Z,12.31
2019-04-09T04:25:30.953Z,12.4
2019-04-09T04:26:32.018Z,12.4
2019-04-09T04:27:31.956Z,12.39
2019-04-09T04:28:42.514Z,12.45
2019-04-09T04:29:31.165Z,12.37
2019-04-09T04:30:32.519Z,12.32
2019-04-09T04:31:30.932Z,12.28
2019-04-09T04:32:31.857Z,12.31
2019-04-09T04:33:31.802Z,12.31
2019-04-09T04:34:30.993Z,12.29
2019-04-09T04:35:31.279Z,12.29
2019-04-09T04:36:33.349Z,12.28
2019-04-09T04:37:31.570Z,12.25
2019-04-09T04:38:31.492Z,12.31
2019-04-09T04:39:31.649Z,12.27
2019-04-09T04:40:32.140Z,12.17
2019-04-09T04:41:32.307Z,12.31
2019-04-09T04:42:32.150Z,12.18
2019-04-09T04:43:32.826Z,12.31
2019-04-09T04:44:32.574Z,12.24
2019-04-09T04:45:31.470Z,12.32
2019-04-09T04:46:31.727Z,12.25
2019-04-09T04:47:32.714Z,12.32
2019-04-09T04:48:32.085Z,12.24
2019-04-09T04:49:32.058Z,12.21
2019-04-09T04:50:33.263Z,12.25
2019-04-09T04:51:31.597Z,12.32
2019-04-09T04:52:33.470Z,12.17
2019-04-09T04:53:31.631Z,12.25
2019-04-09T04:54:32.805Z,12.21
2019-04-09T04:55:31.674Z,12.24
2019-04-09T04:56:32.510Z,12.24
2019-04-09T04:57:32.140Z,12.21
2019-04-09T04:58:50.958Z,12.17
2019-04-09T04:59:31.882Z,12.17
2019-04-09T05:00:32.036Z,12.25
2019-04-09T05:01:33.901Z,12.18
2019-04-09T05:02:31.809Z,12.2
2019-04-09T05:03:32.653Z,12.2
2019-04-09T05:04:32.262Z,12.18
2019-04-09T05:05:31.865Z,12.15
2019-04-09T05:06:32.161Z,12.12
2019-04-09T05:07:48.004Z,12.21
2019-04-09T05:08:33.392Z,12.17
2019-04-09T05:09:33.101Z,12.07
2019-04-09T05:10:32.373Z,12.2
2019-04-09T05:11:32.926Z,12.06
2019-04-09T05:12:32.389Z,12.1
2019-04-09T05:13:32.750Z,12.2
2019-04-09T05:14:32.310Z,12.17
2019-04-09T05:15:33.461Z,12.15
2019-04-09T05:16:32.819Z,12.18
2019-04-09T05:17:33.086Z,12.09
2019-04-09T05:18:32.126Z,12.13
2019-04-09T05:19:33.169Z,12.13
2019-04-09T05:20:33.317Z,12.12
2019-04-09T05:21:32.601Z,12.12
2019-04-09T05:22:36.093Z,12.03
2019-04-09T05:23:32.319Z,12.13
2019-04-09T05:24:32.672Z,12.13
2019-04-09T05:25:33.440Z,12.21
2019-04-09T05:26:34.239Z,12.2
2019-04-09T05:27:33.350Z,12.27
2019-04-09T05:28:34.448Z,12.18
2019-04-09T05:29:32.076Z,12.2
2019-04-09T05:30:33.903Z,12.1
2019-04-09T05:31:33.203Z,12.17
2019-04-09T05:32:32.162Z,12.18
2019-04-09T05:33:34.463Z,12.15
2019-04-09T05:34:32.177Z,12.21
2019-04-09T05:35:32.459Z,12.15
2019-04-09T05:36:32.740Z,12.28
2019-04-09T05:37:33.250Z,12.28
2019-04-09T05:38:33.522Z,12.21
2019-04-09T05:39:33.089Z,12.28
2019-04-09T05:40:33.307Z,12.31
2019-04-09T05:41:32.598Z,12.21
2019-04-09T05:42:33.366Z,12.36
2019-04-09T05:43:32.758Z,12.29
2019-04-09T05:44:32.811Z,12.29
2019-04-09T05:45:32.651Z,12.24
2019-04-09T05:46:32.672Z,12.28
2019-04-09T05:47:33.189Z,12.24
2019-04-09T05:48:32.450Z,12.35
2019-04-09T05:49:32.995Z,12.25
2019-04-09T05:50:34.022Z,12.25
2019-04-09T05:51:33.820Z,12.36
2019-04-09T05:52:33.756Z,12.37
2019-04-09T05:53:33.736Z,12.31
2019-04-09T05:54:33.721Z,12.36
2019-04-09T05:55:33.763Z,12.39
2019-04-09T05:56:32.884Z,12.4
2019-04-09T05:57:33.113Z,12.43
2019-04-09T05:58:33.136Z,12.43
2019-04-09T05:59:33.642Z,12.47
2019-04-09T06:00:32.690Z,12.46
2019-04-09T06:01:34.924Z,12.5
2019-04-09T06:02:33.999Z,12.49
2019-04-09T06:03:34.764Z,12.5
2019-04-09T06:04:32.770Z,12.57
2019-04-09T06:05:33.562Z,12.6
2019-04-09T06:06:33.914Z,12.61
2019-04-09T06:07:33.783Z,12.58
2019-04-09T06:08:34.253Z,12.6
2019-04-09T06:09:33.763Z,12.58
2019-04-09T06:10:33.149Z,12.61
2019-04-09T06:11:34.155Z,12.58
2019-04-09T06:12:33.574Z,12.54
2019-04-09T06:13:33.776Z,12.54
2019-04-09T06:14:32.967Z,12.61
2019-04-09T06:15:33.727Z,12.55
2019-04-09T06:16:34.073Z,12.58
2019-04-09T06:17:35.447Z,12.6
2019-04-09T06:18:34.445Z,12.55
2019-04-09T06:19:33.065Z,12.57
2019-04-09T06:20:34.483Z,12.73
2019-04-09T06:21:45.376Z,12.73
2019-04-09T06:22:35.036Z,12.62
2019-04-09T06:23:34.257Z,12.75
2019-04-09T06:24:34.659Z,12.67
2019-04-09T06:25:37.960Z,12.65
2019-04-09T06:26:33.464Z,12.75
2019-04-09T06:27:34.511Z,12.72
2019-04-09T06:28:34.850Z,12.68
2019-04-09T06:29:35.367Z,12.72
2019-04-09T06:30:34.266Z,12.67
2019-04-09T06:31:33.297Z,12.79
2019-04-09T06:32:33.320Z,12.67
2019-04-09T06:33:34.455Z,12.72
2019-04-09T06:34:34.695Z,12.7
2019-04-09T06:35:34.430Z,12.62
2019-04-09T06:36:34.201Z,12.67
2019-04-09T06:37:33.537Z,12.72
2019-04-09T06:38:34.044Z,12.65
2019-04-09T06:39:33.463Z,12.76
2019-04-09T06:40:34.778Z,12.7
2019-04-09T06:41:33.512Z,12.7
2019-04-09T06:42:34.534Z,12.82
2019-04-09T06:43:35.821Z,12.78
2019-04-09T06:44:33.825Z,12.8
2019-04-09T06:45:34.692Z,12.75
2019-04-09T06:46:34.271Z,12.73
2019-04-09T06:47:34.872Z,12.79
2019-04-09T06:48:34.167Z,12.78
2019-04-09T06:49:35.238Z,12.82
2019-04-09T06:50:35.109Z,12.79
2019-04-09T06:51:52.291Z,12.87
2019-04-09T06:52:35.168Z,12.91
2019-04-09T06:53:34.345Z,12.9
2019-04-09T06:54:35.324Z,12.9
2019-04-09T06:55:34.630Z,12.93
2019-04-09T06:56:33.965Z,12.86
2019-04-09T06:57:34.258Z,12.98
2019-04-09T06:58:34.689Z,12.91
2019-04-09T06:59:40.705Z,12.97
2019-04-09T07:00:34.102Z,12.97
2019-04-09T07:01:35.213Z,12.97
2019-04-09T07:02:35.890Z,12.94
2019-04-09T07:03:34.427Z,12.98
2019-04-09T07:04:34.775Z,12.97
2019-04-09T07:05:34.831Z,13.05
2019-04-09T07:06:35.048Z,13.05
2019-04-09T07:07:34.242Z,13.05
2019-04-09T07:08:34.046Z,13.05
2019-04-09T07:09:34.064Z,13.04
2019-04-09T07:10:34.631Z,13.09
2019-04-09T07:11:35.177Z,13.08
2019-04-09T07:12:36.647Z,13.11
2019-04-09T07:13:34.137Z,13.12
2019-04-09T07:14:35.093Z,13.11
2019-04-09T07:15:35.476Z,13.18
2019-04-09T07:16:34.206Z,13.04
2019-04-09T07:17:38.439Z,13.18
2019-04-09T07:18:34.244Z,13.19
2019-04-09T07:19:35.051Z,13.23
2019-04-09T07:20:35.464Z,13.2
2019-04-09T07:21:36.197Z,13.27
2019-04-09T07:22:35.297Z,13.15
2019-04-09T07:23:34.444Z,13.28
2019-04-09T07:24:34.629Z,13.23
2019-04-09T07:25:34.799Z,13.15
2019-04-09T07:26:38.280Z,13.25
2019-04-09T07:27:35.048Z,13.15
2019-04-09T07:28:34.442Z,13.25
2019-04-09T07:30:06.151Z,13.28
2019-04-09T07:30:34.758Z,13.27
2019-04-09T07:31:38.373Z,13.23
2019-04-09T07:32:45.870Z,13.27
2019-04-09T07:33:35.072Z,13.23
2019-04-09T07:34:39.932Z,13.15
2019-04-09T07:35:38.660Z,13.15
2019-04-09T07:36:40.358Z,13.28
2019-04-09T07:37:34.901Z,13.23
2019-04-09T07:38:38.623Z,13.18
2019-04-09T07:39:36.075Z,13.37
2019-04-09T07:40:42.123Z,13.23
2019-04-09T07:41:37.801Z,13.3
2019-04-09T07:42:34.994Z,13.25
2019-04-09T07:43:36.211Z,13.25
2019-04-09T07:44:37.618Z,13.25
2019-04-09T07:45:38.512Z,13.27
2019-04-09T07:46:36.053Z,13.33
2019-04-09T07:47:36.896Z,13.31
2019-04-09T07:48:34.874Z,13.23
2019-04-09T07:49:40.945Z,13.42
2019-04-09T07:50:35.943Z,13.33
2019-04-09T07:51:35.059Z,13.28
2019-04-09T07:52:35.205Z,13.35
2019-04-09T07:53:37.255Z,13.42
2019-04-09T07:54:48.396Z,13.38
2019-04-09T07:55:35.469Z,13.23
2019-04-09T07:56:36.803Z,13.23
2019-04-09T07:57:44.195Z,13.2
2019-04-09T07:58:39.691Z,13.31
2019-04-09T07:59:36.775Z,13.22
2019-04-09T08:00:35.119Z,13.37
2019-04-09T08:01:36.494Z,13.31
2019-04-09T08:02:35.575Z,13.31
2019-04-09T08:03:36.919Z,13.37
2019-04-09T08:04:44.684Z,13.39
2019-04-09T08:05:35.980Z,13.44
2019-04-09T08:06:35.763Z,13.42
2019-04-09T08:07:35.523Z,13.44
2019-04-09T08:08:38.430Z,13.47
2019-04-09T08:09:37.967Z,13.42
2019-04-09T08:10:35.578Z,13.49
2019-04-09T08:11:36.826Z,13.56
2019-04-09T08:12:37.837Z,13.53
2019-04-09T08:13:39.403Z,13.57
2019-04-09T08:14:35.962Z,13.62
2019-04-09T08:15:41.410Z,13.67
2019-04-09T08:16:38.462Z,13.6
2019-04-09T08:18:02.852Z,13.56
2019-04-09T08:18:36.000Z,13.71
2019-04-09T08:19:35.916Z,13.63
2019-04-09T08:20:38.101Z,13.62
2019-04-09T08:21:44.597Z,13.78
2019-04-09T08:22:43.011Z,13.77
2019-04-09T08:23:35.849Z,13.7
2019-04-09T08:24:36.854Z,13.71
2019-04-09T08:25:37.919Z,13.77
2019-04-09T08:26:45.554Z,13.62
2019-04-09T08:27:37.310Z,13.74
2019-04-09T08:28:35.974Z,13.77
2019-04-09T08:29:35.870Z,13.77
2019-04-09T08:30:47.567Z,13.87
2019-04-09T08:31:36.667Z,13.79
2019-04-09T08:32:43.267Z,13.71
2019-04-09T08:33:37.038Z,13.77
2019-04-09T08:34:41.552Z,13.75
2019-04-09T08:35:42.364Z,13.81
2019-04-09T08:36:37.376Z,13.71
2019-04-09T08:37:37.065Z,13.77
2019-04-09T08:38:37.248Z,13.78
2019-04-09T08:39:44.843Z,13.75
2019-04-09T08:40:36.328Z,13.77
2019-04-09T08:41:40.545Z,13.87
2019-04-09T08:42:37.650Z,13.83
2019-04-09T08:43:41.911Z,13.85
2019-04-09T08:44:37.474Z,13.85
2019-04-09T08:45:37.450Z,13.92
2019-04-09T08:46:37.823Z,13.87
2019-04-09T08:47:46.449Z,13.85
2019-04-09T08:48:36.899Z,13.92
2019-04-09T08:49:36.393Z,13.96
2019-04-09T08:50:37.130Z,13.87
2019-04-09T08:51:43.758Z,13.89
2019-04-09T08:52:40.853Z,13.96
2019-04-09T08:53:36.631Z,13.9
2019-04-09T08:54:37.466Z,13.97
2019-04-09T08:55:41.715Z,13.92
2019-04-09T08:56:46.295Z,13.93
2019-04-09T08:57:36.553Z,13.95
2019-04-09T08:58:36.320Z,13.96
2019-04-09T08:59:38.953Z,13.97
2019-04-09T09:02:01.176Z,14
2019-04-09T09:02:53.974Z,14.03
2019-04-09T09:04:00.973Z,13.97
2019-04-09T09:05:04.618Z,13.99
2019-04-09T09:05:52.772Z,14
2019-04-09T09:06:36.081Z,14.07
2019-04-09T09:07:36.879Z,13.97
2019-04-09T09:08:41.842Z,14.08
2019-04-09T09:09:45.879Z,14
2019-04-09T09:10:36.197Z,14
2019-04-09T09:11:37.629Z,14.04
2019-04-09T09:12:45.871Z,14.08
2019-04-09T09:13:36.150Z,14.14
2019-04-09T09:14:36.789Z,14.04
2019-04-09T09:15:35.742Z,14.07
2019-04-09T09:16:40.018Z,14.17
2019-04-09T09:17:52.522Z,14.17
2019-04-09T09:18:40.888Z,14.08
2019-04-09T09:19:39.147Z,14.12
2019-04-09T09:20:48.887Z,14.14
2019-04-09T09:21:44.183Z,14.2
2019-04-09T09:22:44.710Z,14.22
2019-04-09T09:23:36.220Z,14.2
2019-04-09T09:24:36.692Z,14.23
2019-04-09T09:25:44.052Z,14.18
2019-04-09T09:26:42.134Z,14.2
2019-04-09T09:27:37.230Z,14.2
2019-04-09T09:28:37.154Z,14.18
2019-04-09T09:29:36.301Z,14.22
2019-04-09T09:31:13.202Z,14.2
2019-04-09T09:31:40.749Z,14.15
2019-04-09T09:32:44.769Z,14.17
2019-04-09T09:33:49.572Z,14.22
2019-04-09T09:34:39.526Z,14.26
2019-04-09T09:35:38.741Z,14.18
2019-04-09T09:36:43.974Z,14.25
2019-04-09T09:37:38.721Z,14.29
2019-04-09T09:38:41.563Z,14.35
2019-04-09T09:39:43.452Z,14.43
2019-04-09T09:40:39.297Z,14.2
2019-04-09T09:41:41.062Z,14.3
2019-04-09T09:42:38.676Z,14.35
2019-04-09T09:43:40.838Z,14.3
2019-04-09T09:44:44.103Z,14.32
2019-04-09T09:45:40.209Z,14.22
2019-04-09T09:46:47.645Z,14.33
2019-04-09T09:47:42.284Z,14.33
2019-04-09T09:48:42.986Z,14.33
2019-04-09T09:49:39.239Z,14.22
2019-04-09T09:50:44.168Z,14.32
2019-04-09T09:51:42.618Z,14.26
2019-04-09T09:52:39.435Z,14.29
2019-04-09T09:53:40.260Z,14.28
2019-04-09T09:54:43.160Z,14.28
2019-04-09T09:55:39.549Z,14.23
2019-04-09T09:56:43.771Z,14.3
2019-04-09T09:57:44.876Z,14.3
2019-04-09T09:58:45.605Z,14.26
2019-04-09T09:59:40.967Z,14.33
2019-04-09T10:00:40.360Z,14.29
2019-04-09T10:01:46.004Z,14.29
2019-04-09T10:02:45.885Z,14.28
2019-04-09T10:03:43.899Z,14.29
2019-04-09T10:04:39.095Z,14.41
2019-04-09T10:05:39.956Z,14.29
2019-04-09T10:06:41.766Z,14.3
2019-04-09T10:08:07.712Z,14.33
2019-04-09T10:08:41.961Z,14.35
2019-04-09T10:09:41.827Z,14.32
2019-04-09T10:10:40.408Z,14.32
2019-04-09T10:11:43.237Z,14.43
2019-04-09T10:12:53.968Z,14.44
2019-04-09T10:13:40.501Z,14.43
2019-04-09T10:14:41.025Z,14.41
2019-04-09T10:15:47.407Z,14.43
2019-04-09T10:16:45.032Z,14.33
2019-04-09T10:17:46.547Z,14.45
2019-04-09T10:19:07.518Z,14.45
2019-04-09T10:19:40.623Z,14.51
2019-04-09T10:20:48.283Z,14.55
2019-04-09T10:21:40.606Z,14.44
2019-04-09T10:22:39.876Z,14.44
2019-04-09T10:23:40.003Z,14.53
2019-04-09T10:24:44.077Z,14.54
2019-04-09T10:25:40.180Z,14.45
2019-04-09T10:26:44.012Z,14.43
2019-04-09T10:27:44.848Z,14.5
2019-04-09T10:28:41.839Z,14.45
2019-04-09T10:29:41.319Z,14.5
2019-04-09T10:30:49.202Z,14.48
2019-04-09T10:31:52.742Z,14.53
2019-04-09T10:32:42.721Z,14.5
2019-04-09T10:33:45.039Z,14.5
2019-04-09T10:34:42.203Z,14.47
2019-04-09T10:35:40.805Z,14.59
2019-04-09T10:36:43.754Z,14.62
2019-04-09T10:37:41.124Z,14.48
2019-04-09T10:38:41.367Z,14.59
2019-04-09T10:39:43.567Z,14.54
2019-04-09T10:40:44.823Z,14.58
2019-04-09T10:41:54.209Z,14.58
2019-04-09T10:42:44.313Z,14.63
2019-04-09T10:43:47.340Z,14.62
2019-04-09T10:44:46.906Z,14.6
2019-04-09T10:45:40.002Z,14.59
2019-04-09T10:46:42.279Z,14.59
2019-04-09T10:47:46.984Z,14.62
2019-04-09T10:48:42.953Z,14.51
2019-04-09T10:49:43.860Z,14.62
2019-04-09T10:50:46.904Z,14.58
2019-04-09T10:51:46.599Z,14.63
2019-04-09T10:52:40.369Z,14.62
2019-04-09T10:53:42.208Z,14.6
2019-04-09T10:54:50.453Z,14.63
2019-04-09T10:55:41.557Z,14.59
2019-04-09T10:56:40.910Z,14.51
2019-04-09T10:57:45.398Z,14.66
2019-04-09T10:58:40.884Z,14.55
2019-04-09T10:59:43.258Z,14.62
2019-04-09T11:00:44.674Z,14.62
2019-04-09T11:01:55.605Z,14.66
2019-04-09T11:02:41.558Z,14.6
2019-04-09T11:03:43.459Z,14.63
2019-04-09T11:04:45.799Z,14.53
2019-04-09T11:05:40.643Z,14.59
2019-04-09T11:06:42.017Z,14.66
2019-04-09T11:07:43.727Z,14.63
2019-04-09T11:08:43.813Z,14.63
2019-04-09T11:09:41.727Z,14.63
2019-04-09T11:10:46.450Z,14.65
2019-04-09T11:11:41.940Z,14.7
2019-04-09T11:12:42.747Z,14.73
2019-04-09T11:13:42.891Z,14.69
2019-04-09T11:14:49.828Z,14.77
2019-04-09T11:15:42.254Z,14.78
2019-04-09T11:16:40.617Z,14.68
2019-04-09T11:17:46.253Z,14.77
2019-04-09T11:18:43.980Z,14.73
2019-04-09T11:19:41.738Z,14.65
2019-04-09T11:20:43.872Z,14.7
2019-04-09T11:21:47.844Z,14.72
2019-04-09T11:22:41.464Z,14.77
2019-04-09T11:23:42.885Z,14.77
2019-04-09T11:24:42.288Z,14.82
2019-04-09T11:25:47.469Z,14.78
2019-04-09T11:26:48.813Z,14.85
2019-04-09T11:27:44.872Z,14.82
2019-04-09T11:28:41.398Z,14.81
2019-04-09T11:29:42.022Z,14.86
2019-04-09T11:30:42.565Z,14.79
2019-04-09T11:32:03.545Z,14.79
2019-04-09T11:32:42.215Z,14.78
2019-04-09T11:33:44.760Z,14.82
2019-04-09T11:34:41.843Z,14.84
2019-04-09T11:35:41.567Z,14.79
2019-04-09T11:36:41.525Z,14.82
2019-04-09T11:37:43.373Z,14.79
2019-04-09T11:38:42.151Z,14.84
2019-04-09T11:39:41.106Z,14.77
2019-04-09T11:40:41.523Z,14.79
2019-04-09T11:41:41.401Z,14.84
2019-04-09T11:42:41.529Z,14.89
2019-04-09T11:43:42.630Z,14.86
2019-04-09T11:44:42.953Z,14.86
2019-04-09T11:45:42.636Z,14.86
2019-04-09T11:46:42.423Z,14.89
2019-04-09T11:47:41.563Z,14.91
2019-04-09T11:48:45.634Z,14.86
2019-04-09T11:49:42.434Z,14.97
2019-04-09T11:50:42.534Z,14.99
2019-04-09T11:51:42.111Z,14.88
2019-04-09T11:52:42.639Z,14.92
2019-04-09T11:53:42.318Z,15
2019-04-09T11:54:42.903Z,14.94
2019-04-09T11:55:43.115Z,15
2019-04-09T11:56:42.579Z,15.03
2019-04-09T11:57:44.749Z,15
2019-04-09T11:58:42.971Z,15.02
2019-04-09T11:59:41.718Z,15.07
2019-04-09T12:00:42.350Z,15
2019-04-09T12:01:43.761Z,15.14
2019-04-09T12:02:42.268Z,15.03
2019-04-09T12:03:43.215Z,15.1
2019-04-09T12:04:43.581Z,15.1
2019-04-09T12:05:45.708Z,15.07
2019-04-09T12:06:42.178Z,15.15
2019-04-09T12:07:42.541Z,15.17
2019-04-09T12:08:41.995Z,15.1
2019-04-09T12:09:42.061Z,15.25
2019-04-09T12:10:43.374Z,15.24
2019-04-09T12:11:42.056Z,15.25
2019-04-09T12:12:42.593Z,15.24
2019-04-09T12:13:42.613Z,15.25
2019-04-09T12:14:43.055Z,15.25
2019-04-09T12:15:42.789Z,15.31
2019-04-09T12:16:41.902Z,15.27
2019-04-09T12:17:42.994Z,15.33
2019-04-09T12:18:42.475Z,15.36
2019-04-09T12:19:44.444Z,15.27
2019-04-09T12:20:42.944Z,15.4
2019-04-09T12:21:42.008Z,15.43
2019-04-09T12:22:42.299Z,15.43
2019-04-09T12:23:43.149Z,15.42
2019-04-09T12:24:42.995Z,15.36
2019-04-09T12:25:42.503Z,15.36
2019-04-09T12:26:44.469Z,15.47
2019-04-09T12:27:43.082Z,15.43
2019-04-09T12:28:43.406Z,15.51
2019-04-09T12:29:42.701Z,15.52
2019-04-09T12:30:43.692Z,15.55
2019-04-09T12:31:44.000Z,15.61
2019-04-09T12:32:43.891Z,15.57
2019-04-09T12:33:42.541Z,15.61
2019-04-09T12:34:42.992Z,15.61
2019-04-09T12:35:42.940Z,15.61
2019-04-09T12:36:42.886Z,15.57
2019-04-09T12:37:43.887Z,15.64
2019-04-09T12:38:43.171Z,15.67
2019-04-09T12:39:42.696Z,15.59
2019-04-09T12:40:44.676Z,15.62
2019-04-09T12:41:45.350Z,15.68
2019-04-09T12:42:43.322Z,15.67
2019-04-09T12:43:46.097Z,15.67
2019-04-09T12:44:43.051Z,15.76
2019-04-09T12:45:43.023Z,15.75
2019-04-09T12:46:43.490Z,15.77
2019-04-09T12:47:43.159Z,15.75
2019-04-09T12:48:44.466Z,15.84
2019-04-09T12:49:43.668Z,15.77
2019-04-09T12:50:42.722Z,15.86
2019-04-09T12:51:45.106Z,15.84
2019-04-09T12:52:44.491Z,15.9
2019-04-09T12:53:43.034Z,15.92
2019-04-09T12:54:42.990Z,15.92
2019-04-09T12:55:45.036Z,15.88
2019-04-09T12:56:44.917Z,15.95
2019-04-09T12:57:43.999Z,15.98